Floral, Canada
Current Conditions -  °F | °C
As of 10:10 AM on Thursday 30 Oct 2014 (Local Time) from CYXE Reporting Station
Overcast Overcast  
Wind Chill: -7°   Ceiling: 1500
Heat Index: -2°   Visibility: 15mi
Dew Point: -4°   Wind: 10mph
Humidity: 86%   Direction: 100°E
Pressure: 30.48"   Gusts: NA
Location:  52.07°N, 106.47°W
Report Text: CYXE 301610Z 10009KT 15SM OVC015 M02/M04 A3048 RMK SC8 SLP350
Loading
Personal Weather Stations






























Interactive Weather Map
Tropical Storm Tracking
New forecast layout! Learn more

10-Day Weather Forecast

Advertisements
Track Severe Weather on mobile